sensor_id;sensor_type;location;lat;lon;timestamp;P1;durP1;ratioP1;P2;durP2;ratioP2
64667;SDS011;51077;42.716;23.344;2024-02-14T00:00:52;4.17;;;2.67;;
64667;SDS011;51077;42.716;23.344;2024-02-14T00:03:17;4.93;;;3.40;;
64667;SDS011;51077;42.716;23.344;2024-02-14T00:05:43;4.47;;;2.80;;
64667;SDS011;51077;42.716;23.344;2024-02-14T00:08:09;4.30;;;2.70;;
64667;SDS011;51077;42.716;23.344;2024-02-14T00:10:34;4.47;;;2.80;;
64667;SDS011;51077;42.716;23.344;2024-02-14T00:13:00;4.37;;;3.00;;
64667;SDS011;51077;42.716;23.344;2024-02-14T00:15:25;4.80;;;3.00;;
64667;SDS011;51077;42.716;23.344;2024-02-14T00:17:50;4.43;;;2.97;;
64667;SDS011;51077;42.716;23.344;2024-02-14T00:20:16;3.70;;;2.60;;
64667;SDS011;51077;42.716;23.344;2024-02-14T00:22:41;4.30;;;2.87;;
64667;SDS011;51077;42.716;23.344;2024-02-14T00:25:07;4.20;;;2.77;;
64667;SDS011;51077;42.716;23.344;2024-02-14T00:27:32;4.60;;;3.13;;
64667;SDS011;51077;42.716;23.344;2024-02-14T00:29:58;5.50;;;3.20;;
64667;SDS011;51077;42.716;23.344;2024-02-14T00:32:24;4.07;;;3.03;;
64667;SDS011;51077;42.716;23.344;2024-02-14T00:34:49;4.10;;;3.23;;
64667;SDS011;51077;42.716;23.344;2024-02-14T00:37:15;4.27;;;2.70;;
64667;SDS011;51077;42.716;23.344;2024-02-14T00:39:40;7.10;;;3.53;;
64667;SDS011;51077;42.716;23.344;2024-02-14T00:42:06;4.20;;;2.80;;
64667;SDS011;51077;42.716;23.344;2024-02-14T00:44:31;4.50;;;3.20;;
64667;SDS011;51077;42.716;23.344;2024-02-14T00:46:57;4.10;;;2.60;;
64667;SDS011;51077;42.716;23.344;2024-02-14T00:49:24;5.65;;;3.20;;
64667;SDS011;51077;42.716;23.344;2024-02-14T00:51:50;4.65;;;2.97;;
64667;SDS011;51077;42.716;23.344;2024-02-14T00:54:16;4.90;;;2.90;;
64667;SDS011;51077;42.716;23.344;2024-02-14T00:56:41;4.90;;;3.40;;
64667;SDS011;51077;42.716;23.344;2024-02-14T00:59:06;4.17;;;2.70;;
64667;SDS011;51077;42.716;23.344;2024-02-14T01:01:32;5.30;;;3.30;;
64667;SDS011;51077;42.716;23.344;2024-02-14T01:03:58;5.93;;;3.20;;
64667;SDS011;51077;42.716;23.344;2024-02-14T01:06:23;4.60;;;2.90;;
64667;SDS011;51077;42.716;23.344;2024-02-14T01:08:49;3.65;;;2.70;;
64667;SDS011;51077;42.716;23.344;2024-02-14T01:11:15;3.73;;;2.90;;
64667;SDS011;51077;42.716;23.344;2024-02-14T01:13:40;4.30;;;2.83;;
64667;SDS011;51077;42.716;23.344;2024-02-14T01:16:06;5.53;;;3.17;;
64667;SDS011;51077;42.716;23.344;2024-02-14T01:18:32;4.63;;;3.00;;
64667;SDS011;51077;42.716;23.344;2024-02-14T01:20:58;4.40;;;3.00;;
64667;SDS011;51077;42.716;23.344;2024-02-14T01:23:26;5.38;;;3.40;;
64667;SDS011;51077;42.716;23.344;2024-02-14T01:25:52;4.67;;;3.40;;
64667;SDS011;51077;42.716;23.344;2024-02-14T01:28:19;4.35;;;3.03;;
64667;SDS011;51077;42.716;23.344;2024-02-14T01:30:45;5.00;;;3.60;;
64667;SDS011;51077;42.716;23.344;2024-02-14T01:33:10;4.70;;;3.40;;
64667;SDS011;51077;42.716;23.344;2024-02-14T01:35:35;4.93;;;3.27;;
64667;SDS011;51077;42.716;23.344;2024-02-14T01:38:01;5.47;;;3.90;;
64667;SDS011;51077;42.716;23.344;2024-02-14T01:40:28;4.53;;;3.10;;
64667;SDS011;51077;42.716;23.344;2024-02-14T01:42:53;5.37;;;3.43;;
64667;SDS011;51077;42.716;23.344;2024-02-14T01:45:20;4.30;;;3.50;;
64667;SDS011;51077;42.716;23.344;2024-02-14T01:47:46;5.07;;;3.60;;
64667;SDS011;51077;42.716;23.344;2024-02-14T01:50:12;6.25;;;3.67;;
64667;SDS011;51077;42.716;23.344;2024-02-14T01:52:38;5.05;;;3.70;;
64667;SDS011;51077;42.716;23.344;2024-02-14T01:55:05;5.20;;;3.50;;
64667;SDS011;51077;42.716;23.344;2024-02-14T01:57:32;4.95;;;3.38;;
64667;SDS011;51077;42.716;23.344;2024-02-14T01:59:59;6.20;;;3.72;;
64667;SDS011;51077;42.716;23.344;2024-02-14T02:02:32;4.78;;;3.55;;
64667;SDS011;51077;42.716;23.344;2024-02-14T02:04:58;4.72;;;3.50;;
64667;SDS011;51077;42.716;23.344;2024-02-14T02:07:24;5.80;;;4.00;;
64667;SDS011;51077;42.716;23.344;2024-02-14T02:09:50;5.75;;;3.90;;
64667;SDS011;51077;42.716;23.344;2024-02-14T02:12:15;5.70;;;3.40;;
64667;SDS011;51077;42.716;23.344;2024-02-14T02:14:41;6.57;;;3.63;;
64667;SDS011;51077;42.716;23.344;2024-02-14T02:17:07;5.47;;;3.43;;
64667;SDS011;51077;42.716;23.344;2024-02-14T02:19:34;6.53;;;3.83;;
64667;SDS011;51077;42.716;23.344;2024-02-14T02:22:01;5.50;;;3.65;;
64667;SDS011;51077;42.716;23.344;2024-02-14T02:24:26;5.60;;;4.23;;
64667;SDS011;51077;42.716;23.344;2024-02-14T02:26:51;5.83;;;3.67;;
64667;SDS011;51077;42.716;23.344;2024-02-14T02:29:17;5.73;;;3.80;;
64667;SDS011;51077;42.716;23.344;2024-02-14T02:31:44;4.55;;;3.55;;
64667;SDS011;51077;42.716;23.344;2024-02-14T02:34:10;5.80;;;4.23;;
64667;SDS011;51077;42.716;23.344;2024-02-14T02:36:35;5.73;;;3.90;;
64667;SDS011;51077;42.716;23.344;2024-02-14T02:39:03;5.57;;;4.00;;
64667;SDS011;51077;42.716;23.344;2024-02-14T02:41:29;6.43;;;4.07;;
64667;SDS011;51077;42.716;23.344;2024-02-14T02:43:56;5.50;;;3.80;;
64667;SDS011;51077;42.716;23.344;2024-02-14T02:46:22;6.90;;;3.95;;
64667;SDS011;51077;42.716;23.344;2024-02-14T02:48:48;6.00;;;4.30;;
64667;SDS011;51077;42.716;23.344;2024-02-14T02:51:15;5.57;;;3.80;;
64667;SDS011;51077;42.716;23.344;2024-02-14T02:53:42;6.18;;;4.22;;
64667;SDS011;51077;42.716;23.344;2024-02-14T02:56:07;6.37;;;3.93;;
64667;SDS011;51077;42.716;23.344;2024-02-14T02:58:33;6.67;;;4.03;;
64667;SDS011;51077;42.716;23.344;2024-02-14T03:00:59;7.37;;;4.13;;
64667;SDS011;51077;42.716;23.344;2024-02-14T03:03:24;9.03;;;3.93;;
64667;SDS011;51077;42.716;23.344;2024-02-14T03:05:52;6.13;;;4.22;;
64667;SDS011;51077;42.716;23.344;2024-02-14T03:08:20;4.95;;;3.70;;
64667;SDS011;51077;42.716;23.344;2024-02-14T03:10:46;5.40;;;3.95;;
64667;SDS011;51077;42.716;23.344;2024-02-14T03:13:12;5.87;;;4.47;;
64667;SDS011;51077;42.716;23.344;2024-02-14T03:15:37;5.90;;;4.20;;
64667;SDS011;51077;42.716;23.344;2024-02-14T03:18:03;5.03;;;3.63;;
64667;SDS011;51077;42.716;23.344;2024-02-14T03:20:34;6.75;;;4.50;;
64667;SDS011;51077;42.716;23.344;2024-02-14T03:23:00;5.50;;;4.17;;
64667;SDS011;51077;42.716;23.344;2024-02-14T03:25:25;7.53;;;4.60;;
64667;SDS011;51077;42.716;23.344;2024-02-14T03:27:51;6.27;;;4.60;;
64667;SDS011;51077;42.716;23.344;2024-02-14T03:30:18;6.55;;;4.70;;
64667;SDS011;51077;42.716;23.344;2024-02-14T03:32:45;5.60;;;4.28;;
64667;SDS011;51077;42.716;23.344;2024-02-14T03:35:11;5.43;;;4.13;;
64667;SDS011;51077;42.716;23.344;2024-02-14T03:37:38;6.82;;;4.65;;
64667;SDS011;51077;42.716;23.344;2024-02-14T03:40:05;6.78;;;4.57;;
64667;SDS011;51077;42.716;23.344;2024-02-14T03:42:31;5.47;;;4.15;;
64667;SDS011;51077;42.716;23.344;2024-02-14T03:44:57;6.25;;;4.45;;
64667;SDS011;51077;42.716;23.344;2024-02-14T03:47:28;7.50;;;4.47;;
64667;SDS011;51077;42.716;23.344;2024-02-14T03:49:54;6.95;;;4.50;;
64667;SDS011;51077;42.716;23.344;2024-02-14T03:52:20;6.70;;;4.33;;
64667;SDS011;51077;42.716;23.344;2024-02-14T03:54:47;5.78;;;4.78;;
64667;SDS011;51077;42.716;23.344;2024-02-14T03:57:12;6.70;;;4.83;;
64667;SDS011;51077;42.716;23.344;2024-02-14T03:59:38;7.20;;;4.90;;
64667;SDS011;51077;42.716;23.344;2024-02-14T04:02:04;6.53;;;4.77;;
64667;SDS011;51077;42.716;23.344;2024-02-14T04:04:30;6.07;;;4.35;;
64667;SDS011;51077;42.716;23.344;2024-02-14T04:06:56;6.30;;;4.60;;
64667;SDS011;51077;42.716;23.344;2024-02-14T04:09:23;6.70;;;4.75;;
64667;SDS011;51077;42.716;23.344;2024-02-14T04:11:48;7.37;;;4.53;;
64667;SDS011;51077;42.716;23.344;2024-02-14T04:14:15;6.15;;;4.60;;
64667;SDS011;51077;42.716;23.344;2024-02-14T04:16:40;6.80;;;4.50;;
64667;SDS011;51077;42.716;23.344;2024-02-14T04:19:06;5.93;;;4.13;;
64667;SDS011;51077;42.716;23.344;2024-02-14T04:21:32;7.10;;;5.00;;
64667;SDS011;51077;42.716;23.344;2024-02-14T04:23:58;6.93;;;4.97;;
64667;SDS011;51077;42.716;23.344;2024-02-14T04:26:23;7.00;;;5.00;;
64667;SDS011;51077;42.716;23.344;2024-02-14T04:28:49;6.28;;;4.45;;
64667;SDS011;51077;42.716;23.344;2024-02-14T04:31:14;6.50;;;4.70;;
64667;SDS011;51077;42.716;23.344;2024-02-14T04:33:41;7.28;;;5.10;;
64667;SDS011;51077;42.716;23.344;2024-02-14T04:36:06;7.47;;;5.63;;
64667;SDS011;51077;42.716;23.344;2024-02-14T04:38:32;6.63;;;5.23;;
64667;SDS011;51077;42.716;23.344;2024-02-14T04:40:57;6.17;;;4.93;;
64667;SDS011;51077;42.716;23.344;2024-02-14T04:43:23;7.97;;;5.38;;
64667;SDS011;51077;42.716;23.344;2024-02-14T04:45:51;9.23;;;5.88;;
64667;SDS011;51077;42.716;23.344;2024-02-14T04:48:17;6.95;;;5.18;;
64667;SDS011;51077;42.716;23.344;2024-02-14T04:50:43;6.93;;;5.37;;
64667;SDS011;51077;42.716;23.344;2024-02-14T04:53:08;6.23;;;5.00;;
64667;SDS011;51077;42.716;23.344;2024-02-14T04:55:34;6.57;;;5.20;;
64667;SDS011;51077;42.716;23.344;2024-02-14T04:57:59;7.07;;;5.37;;
64667;SDS011;51077;42.716;23.344;2024-02-14T05:00:25;7.37;;;4.97;;
64667;SDS011;51077;42.716;23.344;2024-02-14T05:02:51;7.23;;;5.70;;
64667;SDS011;51077;42.716;23.344;2024-02-14T05:05:16;6.10;;;5.00;;
64667;SDS011;51077;42.716;23.344;2024-02-14T05:07:42;8.20;;;5.60;;
64667;SDS011;51077;42.716;23.344;2024-02-14T05:10:08;6.47;;;5.17;;
64667;SDS011;51077;42.716;23.344;2024-02-14T05:12:33;8.00;;;5.67;;
64667;SDS011;51077;42.716;23.344;2024-02-14T05:14:59;6.60;;;5.40;;
64667;SDS011;51077;42.716;23.344;2024-02-14T05:17:24;8.00;;;6.07;;
64667;SDS011;51077;42.716;23.344;2024-02-14T05:19:50;7.33;;;5.47;;
64667;SDS011;51077;42.716;23.344;2024-02-14T05:22:15;9.40;;;5.33;;
64667;SDS011;51077;42.716;23.344;2024-02-14T05:24:41;7.60;;;5.73;;
64667;SDS011;51077;42.716;23.344;2024-02-14T05:27:06;8.10;;;5.30;;
64667;SDS011;51077;42.716;23.344;2024-02-14T05:29:32;8.53;;;6.13;;
64667;SDS011;51077;42.716;23.344;2024-02-14T05:31:58;7.95;;;5.97;;
64667;SDS011;51077;42.716;23.344;2024-02-14T05:34:23;9.93;;;6.10;;
64667;SDS011;51077;42.716;23.344;2024-02-14T05:36:49;7.00;;;5.10;;
64667;SDS011;51077;42.716;23.344;2024-02-14T05:39:14;8.13;;;5.33;;
64667;SDS011;51077;42.716;23.344;2024-02-14T05:41:40;8.15;;;5.88;;
64667;SDS011;51077;42.716;23.344;2024-02-14T05:44:06;8.00;;;6.00;;
64667;SDS011;51077;42.716;23.344;2024-02-14T05:46:31;8.97;;;6.87;;
64667;SDS011;51077;42.716;23.344;2024-02-14T05:48:57;9.87;;;6.00;;
64667;SDS011;51077;42.716;23.344;2024-02-14T05:51:23;8.50;;;5.80;;
64667;SDS011;51077;42.716;23.344;2024-02-14T05:53:49;7.75;;;6.53;;
64667;SDS011;51077;42.716;23.344;2024-02-14T05:56:14;12.80;;;6.37;;
64667;SDS011;51077;42.716;23.344;2024-02-14T05:58:39;9.40;;;6.33;;
64667;SDS011;51077;42.716;23.344;2024-02-14T06:01:05;8.63;;;6.40;;
64667;SDS011;51077;42.716;23.344;2024-02-14T06:03:31;8.48;;;5.88;;
64667;SDS011;51077;42.716;23.344;2024-02-14T06:05:56;7.70;;;5.80;;
64667;SDS011;51077;42.716;23.344;2024-02-14T06:08:22;7.63;;;5.77;;
64667;SDS011;51077;42.716;23.344;2024-02-14T06:10:48;8.07;;;6.03;;
64667;SDS011;51077;42.716;23.344;2024-02-14T06:13:14;7.57;;;5.70;;
64667;SDS011;51077;42.716;23.344;2024-02-14T06:15:39;8.90;;;6.37;;
64667;SDS011;51077;42.716;23.344;2024-02-14T06:18:05;8.27;;;6.30;;
64667;SDS011;51077;42.716;23.344;2024-02-14T06:20:31;9.67;;;6.50;;
64667;SDS011;51077;42.716;23.344;2024-02-14T06:22:57;8.10;;;6.07;;
64667;SDS011;51077;42.716;23.344;2024-02-14T06:25:22;8.07;;;5.83;;
64667;SDS011;51077;42.716;23.344;2024-02-14T06:27:48;8.17;;;5.97;;
64667;SDS011;51077;42.716;23.344;2024-02-14T06:30:13;10.03;;;6.70;;
64667;SDS011;51077;42.716;23.344;2024-02-14T06:32:39;7.97;;;6.07;;
64667;SDS011;51077;42.716;23.344;2024-02-14T06:35:04;7.90;;;6.30;;
64667;SDS011;51077;42.716;23.344;2024-02-14T06:37:30;7.17;;;6.30;;
64667;SDS011;51077;42.716;23.344;2024-02-14T06:39:56;8.23;;;5.93;;
64667;SDS011;51077;42.716;23.344;2024-02-14T06:42:21;8.47;;;6.50;;
64667;SDS011;51077;42.716;23.344;2024-02-14T06:44:46;7.70;;;5.77;;
64667;SDS011;51077;42.716;23.344;2024-02-14T06:47:12;8.60;;;6.07;;
64667;SDS011;51077;42.716;23.344;2024-02-14T06:49:37;9.17;;;6.70;;
64667;SDS011;51077;42.716;23.344;2024-02-14T06:52:03;8.03;;;5.90;;
64667;SDS011;51077;42.716;23.344;2024-02-14T06:54:29;7.97;;;6.37;;
64667;SDS011;51077;42.716;23.344;2024-02-14T06:56:54;7.47;;;6.03;;
64667;SDS011;51077;42.716;23.344;2024-02-14T06:59:20;6.90;;;5.07;;
64667;SDS011;51077;42.716;23.344;2024-02-14T07:01:45;6.93;;;5.90;;
64667;SDS011;51077;42.716;23.344;2024-02-14T07:04:11;8.77;;;6.17;;
64667;SDS011;51077;42.716;23.344;2024-02-14T07:06:36;7.37;;;5.80;;
64667;SDS011;51077;42.716;23.344;2024-02-14T07:09:02;9.13;;;6.37;;
64667;SDS011;51077;42.716;23.344;2024-02-14T07:11:27;8.50;;;6.17;;
64667;SDS011;51077;42.716;23.344;2024-02-14T07:13:52;8.27;;;5.87;;
64667;SDS011;51077;42.716;23.344;2024-02-14T07:16:19;7.95;;;5.82;;
64667;SDS011;51077;42.716;23.344;2024-02-14T07:18:44;8.47;;;6.13;;
64667;SDS011;51077;42.716;23.344;2024-02-14T07:21:10;9.27;;;5.33;;
64667;SDS011;51077;42.716;23.344;2024-02-14T07:23:35;7.87;;;5.93;;
64667;SDS011;51077;42.716;23.344;2024-02-14T07:26:01;9.10;;;5.53;;
64667;SDS011;51077;42.716;23.344;2024-02-14T07:28:26;7.40;;;5.60;;
64667;SDS011;51077;42.716;23.344;2024-02-14T07:30:52;8.47;;;5.57;;
64667;SDS011;51077;42.716;23.344;2024-02-14T07:33:17;9.47;;;5.63;;
64667;SDS011;51077;42.716;23.344;2024-02-14T07:35:42;8.37;;;5.40;;
64667;SDS011;51077;42.716;23.344;2024-02-14T07:38:08;8.90;;;5.10;;
64667;SDS011;51077;42.716;23.344;2024-02-14T07:40:33;7.03;;;5.17;;
64667;SDS011;51077;42.716;23.344;2024-02-14T07:42:59;9.07;;;5.27;;
64667;SDS011;51077;42.716;23.344;2024-02-14T07:45:25;9.70;;;5.97;;
64667;SDS011;51077;42.716;23.344;2024-02-14T07:47:51;7.70;;;6.53;;
64667;SDS011;51077;42.716;23.344;2024-02-14T07:50:17;9.93;;;7.00;;
64667;SDS011;51077;42.716;23.344;2024-02-14T07:52:46;9.30;;;6.40;;
64667;SDS011;51077;42.716;23.344;2024-02-14T07:55:12;10.98;;;7.32;;
64667;SDS011;51077;42.716;23.344;2024-02-14T07:57:38;8.70;;;6.50;;
64667;SDS011;51077;42.716;23.344;2024-02-14T08:00:04;8.80;;;6.47;;
64667;SDS011;51077;42.716;23.344;2024-02-14T08:02:35;10.40;;;7.00;;
64667;SDS011;51077;42.716;23.344;2024-02-14T08:05:02;9.82;;;6.95;;
64667;SDS011;51077;42.716;23.344;2024-02-14T08:07:29;10.18;;;6.88;;
64667;SDS011;51077;42.716;23.344;2024-02-14T08:09:55;8.50;;;5.60;;
64667;SDS011;51077;42.716;23.344;2024-02-14T08:12:21;9.50;;;7.10;;
64667;SDS011;51077;42.716;23.344;2024-02-14T08:14:47;10.32;;;6.60;;
64667;SDS011;51077;42.716;23.344;2024-02-14T08:17:12;9.50;;;6.80;;
64667;SDS011;51077;42.716;23.344;2024-02-14T08:19:38;10.05;;;6.30;;
64667;SDS011;51077;42.716;23.344;2024-02-14T08:22:04;9.93;;;6.68;;
64667;SDS011;51077;42.716;23.344;2024-02-14T08:24:31;10.55;;;6.38;;
64667;SDS011;51077;42.716;23.344;2024-02-14T08:26:56;10.77;;;6.77;;
64667;SDS011;51077;42.716;23.344;2024-02-14T08:29:23;9.70;;;6.33;;
64667;SDS011;51077;42.716;23.344;2024-02-14T08:31:48;7.90;;;5.22;;
64667;SDS011;51077;42.716;23.344;2024-02-14T08:34:14;8.80;;;6.25;;
64667;SDS011;51077;42.716;23.344;2024-02-14T08:36:40;7.70;;;4.73;;
64667;SDS011;51077;42.716;23.344;2024-02-14T08:39:07;8.23;;;5.53;;
64667;SDS011;51077;42.716;23.344;2024-02-14T08:41:33;8.43;;;5.68;;
64667;SDS011;51077;42.716;23.344;2024-02-14T08:43:58;8.90;;;6.10;;
64667;SDS011;51077;42.716;23.344;2024-02-14T08:46:24;8.87;;;5.77;;
64667;SDS011;51077;42.716;23.344;2024-02-14T08:48:50;9.35;;;5.70;;
64667;SDS011;51077;42.716;23.344;2024-02-14T08:51:17;7.28;;;5.05;;
64667;SDS011;51077;42.716;23.344;2024-02-14T08:53:45;9.68;;;5.68;;
64667;SDS011;51077;42.716;23.344;2024-02-14T08:56:11;8.73;;;5.32;;
64667;SDS011;51077;42.716;23.344;2024-02-14T08:58:37;9.52;;;5.40;;
64667;SDS011;51077;42.716;23.344;2024-02-14T09:01:02;6.97;;;5.00;;
64667;SDS011;51077;42.716;23.344;2024-02-14T09:03:28;9.47;;;5.93;;
64667;SDS011;51077;42.716;23.344;2024-02-14T09:05:56;7.63;;;5.13;;
64667;SDS011;51077;42.716;23.344;2024-02-14T09:08:22;8.35;;;5.43;;
64667;SDS011;51077;42.716;23.344;2024-02-14T09:10:49;8.07;;;5.43;;
64667;SDS011;51077;42.716;23.344;2024-02-14T09:13:14;7.90;;;5.70;;
64667;SDS011;51077;42.716;23.344;2024-02-14T09:15:40;7.00;;;5.80;;
64667;SDS011;51077;42.716;23.344;2024-02-14T09:18:05;9.47;;;5.30;;
64667;SDS011;51077;42.716;23.344;2024-02-14T09:20:31;9.80;;;6.00;;
64667;SDS011;51077;42.716;23.344;2024-02-14T09:22:56;8.30;;;6.20;;
64667;SDS011;51077;42.716;23.344;2024-02-14T09:25:23;9.15;;;5.43;;
64667;SDS011;51077;42.716;23.344;2024-02-14T09:27:50;9.88;;;6.70;;
64667;SDS011;51077;42.716;23.344;2024-02-14T09:30:16;9.00;;;6.63;;
64667;SDS011;51077;42.716;23.344;2024-02-14T09:32:42;7.88;;;5.88;;
64667;SDS011;51077;42.716;23.344;2024-02-14T09:35:09;11.10;;;6.53;;
64667;SDS011;51077;42.716;23.344;2024-02-14T09:37:35;8.23;;;5.70;;
64667;SDS011;51077;42.716;23.344;2024-02-14T09:40:03;9.75;;;6.53;;
64667;SDS011;51077;42.716;23.344;2024-02-14T09:42:43;8.65;;;6.90;;
64667;SDS011;51077;42.716;23.344;2024-02-14T09:45:10;9.00;;;6.22;;
64667;SDS011;51077;42.716;23.344;2024-02-14T09:47:36;9.02;;;7.43;;
64667;SDS011;51077;42.716;23.344;2024-02-14T09:50:04;19.35;;;7.60;;
64667;SDS011;51077;42.716;23.344;2024-02-14T09:52:32;9.27;;;7.15;;
64667;SDS011;51077;42.716;23.344;2024-02-14T09:54:58;9.10;;;7.10;;
64667;SDS011;51077;42.716;23.344;2024-02-14T09:57:27;11.32;;;6.93;;
64667;SDS011;51077;42.716;23.344;2024-02-14T09:59:54;8.65;;;6.28;;
64667;SDS011;51077;42.716;23.344;2024-02-14T10:02:21;9.98;;;6.70;;
64667;SDS011;51077;42.716;23.344;2024-02-14T10:04:47;10.77;;;6.90;;
64667;SDS011;51077;42.716;23.344;2024-02-14T10:07:12;8.83;;;6.27;;
64667;SDS011;51077;42.716;23.344;2024-02-14T10:09:41;9.93;;;6.37;;
64667;SDS011;51077;42.716;23.344;2024-02-14T10:12:08;12.95;;;6.50;;
64667;SDS011;51077;42.716;23.344;2024-02-14T10:14:34;12.52;;;7.25;;
64667;SDS011;51077;42.716;23.344;2024-02-14T10:17:03;11.57;;;7.88;;
64667;SDS011;51077;42.716;23.344;2024-02-14T10:19:29;13.93;;;8.50;;
64667;SDS011;51077;42.716;23.344;2024-02-14T10:21:56;19.07;;;12.67;;
64667;SDS011;51077;42.716;23.344;2024-02-14T10:24:26;23.08;;;14.40;;
64667;SDS011;51077;42.716;23.344;2024-02-14T10:26:54;23.08;;;15.88;;
64667;SDS011;51077;42.716;23.344;2024-02-14T10:29:22;22.25;;;14.40;;
64667;SDS011;51077;42.716;23.344;2024-02-14T10:31:52;20.42;;;13.07;;
64667;SDS011;51077;42.716;23.344;2024-02-14T10:34:24;19.45;;;12.60;;
64667;SDS011;51077;42.716;23.344;2024-02-14T10:36:51;20.38;;;12.48;;
64667;SDS011;51077;42.716;23.344;2024-02-14T10:39:18;19.27;;;11.63;;
64667;SDS011;51077;42.716;23.344;2024-02-14T10:41:44;17.97;;;11.63;;
64667;SDS011;51077;42.716;23.344;2024-02-14T10:44:09;14.30;;;9.70;;
64667;SDS011;51077;42.716;23.344;2024-02-14T10:46:36;15.27;;;10.23;;
64667;SDS011;51077;42.716;23.344;2024-02-14T10:49:03;13.10;;;9.23;;
64667;SDS011;51077;42.716;23.344;2024-02-14T10:51:38;13.38;;;8.43;;
64667;SDS011;51077;42.716;23.344;2024-02-14T10:54:12;13.70;;;8.55;;
64667;SDS011;51077;42.716;23.344;2024-02-14T10:56:41;13.27;;;8.60;;
64667;SDS011;51077;42.716;23.344;2024-02-14T10:59:10;11.82;;;8.00;;
64667;SDS011;51077;42.716;23.344;2024-02-14T11:01:39;12.30;;;7.13;;
64667;SDS011;51077;42.716;23.344;2024-02-14T11:04:06;11.43;;;7.00;;
64667;SDS011;51077;42.716;23.344;2024-02-14T11:06:32;12.17;;;7.73;;
64667;SDS011;51077;42.716;23.344;2024-02-14T11:08:59;10.50;;;6.82;;
64667;SDS011;51077;42.716;23.344;2024-02-14T11:11:31;9.43;;;6.75;;
64667;SDS011;51077;42.716;23.344;2024-02-14T11:13:57;12.27;;;6.32;;
64667;SDS011;51077;42.716;23.344;2024-02-14T11:16:24;9.40;;;6.33;;
64667;SDS011;51077;42.716;23.344;2024-02-14T11:18:52;11.77;;;6.45;;
64667;SDS011;51077;42.716;23.344;2024-02-14T11:21:19;9.65;;;6.65;;
64667;SDS011;51077;42.716;23.344;2024-02-14T11:23:53;10.03;;;6.37;;
64667;SDS011;51077;42.716;23.344;2024-02-14T11:28:45;9.17;;;5.93;;
64667;SDS011;51077;42.716;23.344;2024-02-14T11:31:16;9.18;;;5.90;;
64667;SDS011;51077;42.716;23.344;2024-02-14T11:33:42;8.15;;;5.65;;
64667;SDS011;51077;42.716;23.344;2024-02-14T11:36:10;8.10;;;4.75;;
64667;SDS011;51077;42.716;23.344;2024-02-14T11:38:37;9.38;;;5.13;;
64667;SDS011;51077;42.716;23.344;2024-02-14T11:41:02;8.90;;;5.80;;
64667;SDS011;51077;42.716;23.344;2024-02-14T11:43:28;10.60;;;5.20;;
64667;SDS011;51077;42.716;23.344;2024-02-14T11:45:54;10.67;;;5.40;;
64667;SDS011;51077;42.716;23.344;2024-02-14T11:48:20;7.87;;;5.10;;
64667;SDS011;51077;42.716;23.344;2024-02-14T11:50:46;9.38;;;5.75;;
64667;SDS011;51077;42.716;23.344;2024-02-14T11:53:12;7.78;;;4.85;;
64667;SDS011;51077;42.716;23.344;2024-02-14T11:55:41;9.43;;;5.45;;
64667;SDS011;51077;42.716;23.344;2024-02-14T11:58:08;9.50;;;5.57;;
64667;SDS011;51077;42.716;23.344;2024-02-14T12:00:42;11.00;;;5.70;;
64667;SDS011;51077;42.716;23.344;2024-02-14T12:03:13;9.52;;;5.30;;
64667;SDS011;51077;42.716;23.344;2024-02-14T12:05:41;7.70;;;5.07;;
64667;SDS011;51077;42.716;23.344;2024-02-14T12:08:09;7.32;;;4.80;;
64667;SDS011;51077;42.716;23.344;2024-02-14T12:10:35;8.40;;;4.78;;
64667;SDS011;51077;42.716;23.344;2024-02-14T12:13:08;6.75;;;4.68;;
64667;SDS011;51077;42.716;23.344;2024-02-14T12:15:40;7.18;;;4.95;;
64667;SDS011;51077;42.716;23.344;2024-02-14T12:18:10;7.47;;;4.72;;
64667;SDS011;51077;42.716;23.344;2024-02-14T12:21:25;6.88;;;4.10;;
64667;SDS011;51077;42.716;23.344;2024-02-14T12:23:57;6.75;;;4.80;;
64667;SDS011;51077;42.716;23.344;2024-02-14T12:26:24;9.10;;;4.40;;
64667;SDS011;51077;42.716;23.344;2024-02-14T12:28:51;8.13;;;4.37;;
64667;SDS011;51077;42.716;23.344;2024-02-14T12:31:23;8.88;;;4.60;;
64667;SDS011;51077;42.716;23.344;2024-02-14T12:33:49;6.28;;;4.35;;
64667;SDS011;51077;42.716;23.344;2024-02-14T12:36:17;6.30;;;4.20;;
64667;SDS011;51077;42.716;23.344;2024-02-14T12:38:43;5.57;;;3.90;;
64667;SDS011;51077;42.716;23.344;2024-02-14T12:41:09;6.03;;;4.10;;
64667;SDS011;51077;42.716;23.344;2024-02-14T12:43:35;6.80;;;4.40;;
64667;SDS011;51077;42.716;23.344;2024-02-14T12:46:01;7.63;;;4.22;;
64667;SDS011;51077;42.716;23.344;2024-02-14T12:48:26;8.50;;;4.73;;
64667;SDS011;51077;42.716;23.344;2024-02-14T12:50:52;67.80;;;42.45;;
64667;SDS011;51077;42.716;23.344;2024-02-14T12:53:18;66.33;;;44.83;;
64667;SDS011;51077;42.716;23.344;2024-02-14T12:55:45;63.03;;;42.90;;
64667;SDS011;51077;42.716;23.344;2024-02-14T12:58:11;56.78;;;37.70;;
64667;SDS011;51077;42.716;23.344;2024-02-14T13:00:37;51.67;;;35.70;;
64667;SDS011;51077;42.716;23.344;2024-02-14T13:03:03;50.20;;;34.28;;
64667;SDS011;51077;42.716;23.344;2024-02-14T13:05:29;50.17;;;33.53;;
64667;SDS011;51077;42.716;23.344;2024-02-14T13:07:55;46.27;;;32.30;;
64667;SDS011;51077;42.716;23.344;2024-02-14T13:10:21;44.57;;;29.90;;
64667;SDS011;51077;42.716;23.344;2024-02-14T13:12:47;41.28;;;28.98;;
64667;SDS011;51077;42.716;23.344;2024-02-14T13:15:12;41.47;;;28.53;;
64667;SDS011;51077;42.716;23.344;2024-02-14T13:17:38;37.80;;;26.37;;
64667;SDS011;51077;42.716;23.344;2024-02-14T13:20:03;43.63;;;29.03;;
64667;SDS011;51077;42.716;23.344;2024-02-14T13:22:30;39.20;;;28.48;;
64667;SDS011;51077;42.716;23.344;2024-02-14T13:24:55;36.03;;;26.53;;
64667;SDS011;51077;42.716;23.344;2024-02-14T13:27:25;37.28;;;26.42;;
64667;SDS011;51077;42.716;23.344;2024-02-14T13:29:51;35.70;;;25.73;;
64667;SDS011;51077;42.716;23.344;2024-02-14T13:32:16;33.93;;;22.73;;
64667;SDS011;51077;42.716;23.344;2024-02-14T13:34:42;33.30;;;23.90;;
64667;SDS011;51077;42.716;23.344;2024-02-14T13:37:11;35.45;;;22.42;;
64667;SDS011;51077;42.716;23.344;2024-02-14T13:39:36;28.27;;;21.27;;
64667;SDS011;51077;42.716;23.344;2024-02-14T13:42:02;31.63;;;20.87;;
64667;SDS011;51077;42.716;23.344;2024-02-14T13:44:27;29.17;;;19.00;;
64667;SDS011;51077;42.716;23.344;2024-02-14T13:46:53;27.03;;;19.57;;
64667;SDS011;51077;42.716;23.344;2024-02-14T13:49:19;28.90;;;19.73;;
64667;SDS011;51077;42.716;23.344;2024-02-14T13:51:48;24.70;;;18.58;;
64667;SDS011;51077;42.716;23.344;2024-02-14T13:54:15;23.02;;;17.10;;
64667;SDS011;51077;42.716;23.344;2024-02-14T13:56:41;23.80;;;16.80;;
64667;SDS011;51077;42.716;23.344;2024-02-14T13:59:06;24.77;;;17.27;;
64667;SDS011;51077;42.716;23.344;2024-02-14T14:01:31;23.73;;;16.70;;
64667;SDS011;51077;42.716;23.344;2024-02-14T14:03:57;24.00;;;15.67;;
64667;SDS011;51077;42.716;23.344;2024-02-14T14:06:23;26.67;;;16.85;;
64667;SDS011;51077;42.716;23.344;2024-02-14T14:08:51;24.77;;;16.10;;
64667;SDS011;51077;42.716;23.344;2024-02-14T14:11:17;20.37;;;15.37;;
64667;SDS011;51077;42.716;23.344;2024-02-14T14:13:42;27.60;;;16.20;;
64667;SDS011;51077;42.716;23.344;2024-02-14T14:16:08;21.73;;;15.83;;
64667;SDS011;51077;42.716;23.344;2024-02-14T14:18:34;23.87;;;16.20;;
64667;SDS011;51077;42.716;23.344;2024-02-14T14:21:00;22.42;;;15.07;;
64667;SDS011;51077;42.716;23.344;2024-02-14T14:23:26;19.93;;;13.90;;
64667;SDS011;51077;42.716;23.344;2024-02-14T14:25:51;19.57;;;14.97;;